Time;durP1;ratioP1;P1;durP2;ratioP2;P2;SDS_P1;SDS_P2;PMS_P1;PMS_P2;Temp;Humidity;BMP_temperature;BMP_pressure;BME280_temperature;BME280_humidity;BME280_pressure;Samples;Min_cycle;Max_cycle;Signal;HPM_P1;HPM_P2
2023/06/23 00:01:47;;;;;;;20.20;12.82;;;;;;;23.90;100.00;98593.50;4468924;32;20097;-64
2023/06/23 00:04:15;;;;;;;16.23;12.40;;;;;;;23.87;100.00;98593.16;4468813;32;20101;-65
2023/06/23 00:06:42;;;;;;;19.48;12.80;;;;;;;23.86;100.00;98587.00;4468551;32;20094;-65
2023/06/23 00:09:13;;;;;;;18.50;12.50;;;;;;;23.84;100.00;98583.69;4469952;32;20115;-65
2023/06/23 00:11:44;;;;;;;15.10;11.65;;;;;;;23.87;100.00;98577.09;4484536;31;20084;-65
2023/06/23 00:14:12;;;;;;;17.48;12.40;;;;;;;23.68;100.00;98587.81;4472564;31;20092;-65
2023/06/23 00:16:40;;;;;;;17.17;12.05;;;;;;;23.65;100.00;98577.59;4468576;32;20745;-65
2023/06/23 00:19:07;;;;;;;16.25;12.23;;;;;;;23.74;100.00;98567.37;4468725;32;20120;-64
2023/06/23 00:21:34;;;;;;;19.30;12.65;;;;;;;23.71;100.00;98570.53;4468699;32;20144;-65
2023/06/23 00:24:01;;;;;;;16.50;12.60;;;;;;;23.53;100.00;98574.06;4468413;32;20088;-65
2023/06/23 00:26:29;;;;;;;16.17;12.65;;;;;;;23.51;100.00;98579.62;4468604;32;20153;-65
2023/06/23 00:28:57;;;;;;;17.27;13.52;;;;;;;23.50;100.00;98583.34;4468557;32;20093;-65
2023/06/23 00:31:24;;;;;;;20.88;12.70;;;;;;;23.42;100.00;98582.81;4468317;32;20201;-65
2023/06/23 00:33:53;;;;;;;18.65;12.95;;;;;;;23.42;100.00;98585.50;4468513;32;20077;-65
2023/06/23 00:36:20;;;;;;;20.95;12.55;;;;;;;23.36;100.00;98579.19;4468303;32;20093;-64
2023/06/23 00:38:47;;;;;;;16.73;12.63;;;;;;;23.38;100.00;98577.94;4468342;32;20164;-65
2023/06/23 00:41:16;;;;;;;18.00;12.70;;;;;;;23.44;100.00;98578.88;4468054;32;20100;-65
2023/06/23 00:43:49;;;;;;;24.98;12.30;;;;;;;23.34;100.00;98581.28;4468339;32;20107;-64
2023/06/23 00:46:20;;;;;;;18.12;13.52;;;;;;;23.40;100.00;98588.38;4468164;32;20435;-65
2023/06/23 00:48:48;;;;;;;17.45;12.55;;;;;;;23.45;100.00;98593.91;4468328;32;20136;-65
2023/06/23 00:51:16;;;;;;;18.10;14.20;;;;;;;23.43;100.00;98595.16;4469169;32;20113;-65
2023/06/23 00:53:47;;;;;;;15.85;12.45;;;;;;;23.38;100.00;98595.81;4469271;32;20434;-65
2023/06/23 00:56:15;;;;;;;19.35;13.35;;;;;;;23.30;100.00;98585.44;4468992;32;20102;-64
2023/06/23 00:58:42;;;;;;;18.00;12.77;;;;;;;23.30;100.00;98574.75;4469193;32;20101;-65
2023/06/23 01:01:10;;;;;;;14.93;11.82;;;;;;;23.16;100.00;98566.88;4470490;32;20633;-65
2023/06/23 01:03:40;;;;;;;17.87;13.75;;;;;;;23.13;100.00;98561.97;4469178;32;20564;-65
2023/06/23 01:06:14;;;;;;;17.12;13.50;;;;;;;23.08;100.00;98548.44;4469991;32;20076;-65
2023/06/23 01:08:52;;;;;;;18.12;12.98;;;;;;;23.03;100.00;98540.31;4469415;32;20105;-65
2023/06/23 01:11:28;;;;;;;17.60;12.98;;;;;;;23.07;100.00;98541.47;4468842;32;20127;-65
2023/06/23 01:14:00;;;;;;;23.12;13.93;;;;;;;23.02;100.00;98544.81;4479101;32;20576;-65
2023/06/23 01:16:31;;;;;;;19.37;14.07;;;;;;;22.97;100.00;98541.19;4484455;32;20101;-65
2023/06/23 01:19:09;;;;;;;19.77;13.98;;;;;;;22.89;100.00;98536.94;4485995;31;20446;-65
2023/06/23 01:22:03;;;;;;;18.80;13.05;;;;;;;22.86;100.00;98530.22;4486019;32;20172;-64
2023/06/23 01:24:33;;;;;;;18.62;13.05;;;;;;;22.90;100.00;98527.09;4484747;32;20093;-64
2023/06/23 01:27:32;;;;;;;14.82;12.10;;;;;;;22.88;100.00;98532.66;4485863;31;20171;-64
2023/06/23 01:30:02;;;;;;;19.15;13.07;;;;;;;22.83;100.00;98530.66;4485819;31;20388;-65
2023/06/23 01:32:35;;;;;;;19.58;12.37;;;;;;;22.87;100.00;98536.38;4485682;32;20119;-64
2023/06/23 01:35:07;;;;;;;17.65;13.52;;;;;;;22.83;100.00;98530.66;4485777;31;20490;-65
2023/06/23 01:37:36;;;;;;;18.20;13.15;;;;;;;22.83;100.00;98529.81;4485893;31;20095;-64
2023/06/23 01:40:09;;;;;;;15.63;12.48;;;;;;;22.86;100.00;98519.53;4484318;32;20164;-64
2023/06/23 01:42:41;;;;;;;19.92;13.90;;;;;;;22.86;100.00;98532.88;4484549;32;20096;-65
2023/06/23 01:45:09;;;;;;;19.17;13.18;;;;;;;22.78;100.00;98541.19;4484408;32;20092;-65
2023/06/23 01:47:38;;;;;;;23.27;13.18;;;;;;;22.73;100.00;98543.72;4485543;31;20118;-65
2023/06/23 01:50:08;;;;;;;16.05;12.73;;;;;;;22.84;100.00;98558.97;4484324;32;20463;-64
2023/06/23 01:52:37;;;;;;;17.70;12.35;;;;;;;22.80;100.00;98562.31;4484637;32;20544;-65
2023/06/23 01:55:06;;;;;;;18.92;13.30;;;;;;;22.80;100.00;98560.47;4485634;31;20080;-65
2023/06/23 01:57:35;;;;;;;17.20;13.15;;;;;;;22.69;100.00;98561.19;4485449;31;20084;-65
2023/06/23 02:00:08;;;;;;;16.27;13.25;;;;;;;22.69;100.00;98561.19;4484029;32;20101;-65
2023/06/23 02:02:39;;;;;;;23.08;13.60;;;;;;;22.64;100.00;98558.38;4484284;32;20462;-65
2023/06/23 02:05:08;;;;;;;18.70;13.23;;;;;;;22.65;100.00;98560.00;4471334;32;20104;-65
2023/06/23 02:07:38;;;;;;;18.85;13.07;;;;;;;22.63;100.00;98559.41;4484363;32;20152;-65
2023/06/23 02:10:06;;;;;;;19.05;13.75;;;;;;;22.61;100.00;98553.50;4476611;32;20112;-65
2023/06/23 02:12:34;;;;;;;17.12;12.35;;;;;;;22.66;100.00;98556.31;4470798;32;20092;-64
2023/06/23 02:15:03;;;;;;;18.08;13.20;;;;;;;22.66;100.00;98543.78;4485347;31;20088;-64
2023/06/23 02:17:34;;;;;;;21.10;13.50;;;;;;;22.60;100.00;98541.97;4485328;32;20468;-65
2023/06/23 02:20:13;;;;;;;19.30;12.90;;;;;;;22.59;100.00;98540.38;4485562;31;20089;-65
2023/06/23 02:22:45;;;;;;;17.90;13.23;;;;;;;22.63;100.00;98543.41;4485454;31;20092;-65
2023/06/23 02:25:13;;;;;;;20.17;13.20;;;;;;;22.55;100.00;98544.50;4484413;32;20550;-65
2023/06/23 02:27:40;;;;;;;19.73;14.30;;;;;;;22.47;100.00;98545.59;4485354;31;20135;-65
2023/06/23 02:30:08;;;;;;;22.20;14.35;;;;;;;22.42;100.00;98549.97;4485347;31;20096;-65
2023/06/23 02:32:36;;;;;;;22.62;13.93;;;;;;;22.36;100.00;98548.97;4483950;32;20104;-64
2023/06/23 02:35:03;;;;;;;20.52;13.10;;;;;;;22.33;100.00;98554.75;4485475;31;20096;-65
2023/06/23 02:37:32;;;;;;;19.40;13.98;;;;;;;22.34;100.00;98559.06;4485166;31;20092;-64
2023/06/23 02:40:06;;;;;;;17.52;13.77;;;;;;;22.29;100.00;98548.22;4485459;31;20121;-65
2023/06/23 02:42:40;;;;;;;16.52;14.23;;;;;;;22.19;100.00;98545.22;4484049;32;20167;-65
2023/06/23 02:45:14;;;;;;;17.23;13.75;;;;;;;22.22;100.00;98544.78;4484040;32;20419;-65
2023/06/23 02:47:41;;;;;;;;;;;;;;;22.19;100.00;98534.53;4484142;32;20080;-65
2023/06/23 02:50:11;;;;;;;19.98;13.23;;;;;;;22.15;100.00;98540.31;4484031;32;20029;-65
2023/06/23 02:52:44;;;;;;;17.87;14.32;;;;;;;22.07;100.00;98543.22;4483884;32;20602;-65
2023/06/23 02:55:15;;;;;;;16.65;13.20;;;;;;;22.15;100.00;98540.31;4483829;32;20087;-65
2023/06/23 02:57:42;;;;;;;20.70;13.25;;;;;;;22.13;100.00;98534.38;4483801;32;20088;-65
2023/06/23 03:00:17;;;;;;;18.67;14.02;;;;;;;22.13;100.00;98541.56;4485138;31;20454;-64
2023/06/23 03:02:46;;;;;;;20.52;13.75;;;;;;;22.10;100.00;98537.47;4484017;32;20123;-64
2023/06/23 03:05:14;;;;;;;19.85;13.23;;;;;;;22.09;100.00;98541.19;4483853;32;20232;-65
2023/06/23 03:07:41;;;;;;;22.35;13.62;;;;;;;22.10;100.00;98547.31;4484849;31;20096;-65
2023/06/23 03:10:09;;;;;;;20.40;13.35;;;;;;;22.21;100.00;98554.66;4477128;31;20117;-65
2023/06/23 03:12:38;;;;;;;19.55;13.40;;;;;;;22.15;100.00;98550.97;4468805;32;20108;-65
2023/06/23 03:15:05;;;;;;;19.12;12.98;;;;;;;22.24;100.00;98548.03;4485016;32;20155;-64
2023/06/23 03:17:37;;;;;;;17.40;13.10;;;;;;;22.33;100.00;98557.41;4484947;31;20114;-65
2023/06/23 03:20:16;;;;;;;21.08;13.13;;;;;;;22.29;100.00;98561.56;4483485;32;20116;-65
2023/06/23 03:22:49;;;;;;;18.15;12.57;;;;;;;22.36;100.00;98559.66;4483754;32;20179;-64
2023/06/23 03:25:20;;;;;;;14.73;11.88;;;;;;;22.45;100.00;98555.69;4483841;32;20084;-65
2023/06/23 03:27:50;;;;;;;15.63;12.07;;;;;;;22.43;100.00;98562.28;4483594;32;20107;-65
2023/06/23 03:30:24;;;;;;;14.70;11.88;;;;;;;22.53;100.00;98564.44;4484789;31;20096;-65
2023/06/23 03:32:54;;;;;;;14.07;11.70;;;;;;;22.60;100.00;98567.87;4483261;32;20445;-65
2023/06/23 03:35:25;;;;;;;17.20;12.52;;;;;;;22.64;100.00;98577.88;4484804;31;20790;-64
2023/06/23 03:37:59;;;;;;;15.82;11.77;;;;;;;22.64;100.00;98582.41;4483606;32;20089;-64
2023/06/23 03:40:31;;;;;;;15.90;11.43;;;;;;;22.70;100.00;98580.72;4483570;32;20684;-65
2023/06/23 03:43:21;;;;;;;16.35;11.30;;;;;;;22.74;100.00;98572.06;4483396;32;20477;-65
2023/06/23 03:45:53;;;;;;;17.67;11.65;;;;;;;22.82;100.00;98574.44;4483431;32;20152;-65
2023/06/23 03:48:22;;;;;;;17.05;11.50;;;;;;;22.91;100.00;98569.63;4483275;32;20107;-65
2023/06/23 03:50:50;;;;;;;15.20;10.85;;;;;;;22.81;100.00;98570.09;4483308;32;20093;-65
2023/06/23 03:53:18;;;;;;;14.50;11.07;;;;;;;22.91;100.00;98568.78;4483284;32;20100;-65
2023/06/23 03:55:46;;;;;;;18.15;11.38;;;;;;;22.94;100.00;98579.03;4484657;31;20565;-65
2023/06/23 03:58:14;;;;;;;17.85;11.23;;;;;;;23.06;100.00;98577.25;4483179;32;20080;-64
2023/06/23 04:00:42;;;;;;;19.62;11.75;;;;;;;23.12;100.00;98587.09;4484747;31;20119;-64
2023/06/23 04:03:10;;;;;;;16.60;10.85;;;;;;;23.20;100.00;98585.97;4483699;31;20096;-65
2023/06/23 04:05:39;;;;;;;16.23;10.75;;;;;;;23.33;100.00;98585.81;4484257;31;20488;-64
2023/06/23 04:08:08;;;;;;;18.62;11.55;;;;;;;23.45;100.00;98595.72;4483783;32;20092;-65
2023/06/23 04:10:35;;;;;;;16.17;10.68;;;;;;;23.47;100.00;98588.31;4472275;32;20152;-65
2023/06/23 04:13:03;;;;;;;14.27;10.52;;;;;;;23.30;100.00;98588.94;4472442;32;20104;-64
2023/06/23 04:15:31;;;;;;;15.05;10.52;;;;;;;23.44;100.00;98589.59;4482517;32;20123;-65
2023/06/23 04:18:00;;;;;;;17.85;11.07;;;;;;;23.46;100.00;98587.50;4478374;31;20136;-65
2023/06/23 04:20:30;;;;;;;13.13;10.00;;;;;;;23.60;100.00;98598.00;4468592;32;20575;-65
2023/06/23 04:22:58;;;;;;;17.83;10.73;;;;;;;23.73;100.00;98593.28;4473546;32;20100;-65
2023/06/23 04:25:26;;;;;;;12.07;10.23;;;;;;;23.72;100.00;98590.84;4485271;32;20110;-65
2023/06/23 04:27:58;;;;;;;12.93;10.32;;;;;;;23.95;100.00;98590.13;4485502;32;20571;-65
2023/06/23 04:30:27;;;;;;;13.57;10.98;;;;;;;24.00;100.00;98592.16;4486079;31;20172;-65
2023/06/23 04:32:54;;;;;;;17.40;10.90;;;;;;;23.99;100.00;98595.88;4484261;32;20529;-65
2023/06/23 04:35:22;;;;;;;15.48;10.88;;;;;;;24.06;100.00;98593.91;4475775;32;20151;-65
2023/06/23 04:37:59;;;;;;;16.92;10.50;;;;;;;24.11;100.00;98601.25;4484860;32;20567;-65
2023/06/23 04:40:34;;;;;;;15.10;9.82;;;;;;;24.30;100.00;98593.94;4483812;32;20168;-65
2023/06/23 04:43:23;;;;;;;14.05;10.18;;;;;;;24.44;100.00;98582.78;4482771;32;20100;-65
2023/06/23 04:46:02;;;;;;;16.12;10.93;;;;;;;24.52;100.00;98584.28;4483923;32;20095;-65
2023/06/23 04:48:38;;;;;;;14.68;9.52;;;;;;;24.57;100.00;98583.59;4482266;32;20172;-65
2023/06/23 04:51:07;;;;;;;20.62;10.60;;;;;;;24.54;100.00;98579.53;4483884;32;20119;-65
2023/06/23 04:53:39;;;;;;;17.02;10.32;;;;;;;24.73;100.00;98574.09;4484023;32;20138;-65
2023/06/23 04:56:08;;;;;;;15.70;10.00;;;;;;;24.85;100.00;98595.50;4471063;32;20092;-65
2023/06/23 04:58:37;;;;;;;19.12;11.40;;;;;;;24.85;100.00;98593.63;4483003;32;20127;-65
2023/06/23 05:01:08;;;;;;;18.25;10.40;;;;;;;24.82;100.00;98593.31;4475668;32;20488;-65
2023/06/23 05:03:37;;;;;;;17.02;9.95;;;;;;;25.07;100.00;98591.16;4477926;32;20100;-65
2023/06/23 05:06:05;;;;;;;20.35;11.68;;;;;;;25.03;100.00;98592.69;4484756;31;20525;-65
2023/06/23 05:08:32;;;;;;;18.48;9.60;;;;;;;24.91;100.00;98591.91;4462853;32;20156;-65
2023/06/23 05:11:05;;;;;;;17.10;10.65;;;;;;;25.11;100.00;98586.94;4474242;32;20112;-65
2023/06/23 05:13:36;;;;;;;17.30;11.00;;;;;;;25.29;100.00;98588.69;4474906;32;20112;-65
2023/06/23 05:16:04;;;;;;;20.17;10.48;;;;;;;25.03;100.00;98586.53;4483382;31;20100;-65
2023/06/23 05:18:31;;;;;;;15.38;10.88;;;;;;;24.96;100.00;98574.03;4481028;32;20114;-65
2023/06/23 05:20:59;;;;;;;17.52;11.05;;;;;;;24.91;100.00;98586.53;4482965;32;20172;-65
2023/06/23 05:23:27;;;;;;;19.90;10.32;;;;;;;25.04;100.00;98593.50;4479027;32;20394;-65
2023/06/23 05:26:06;;;;;;;14.07;10.68;;;;;;;25.21;100.00;98591.72;4479671;31;20084;-65
2023/06/23 05:28:36;;;;;;;22.40;10.23;;;;;;;25.48;100.00;98589.34;4478637;31;20096;-65
2023/06/23 05:31:04;;;;;;;22.15;10.73;;;;;;;25.61;100.00;98588.22;4479759;32;20096;-65
2023/06/23 05:33:35;;;;;;;17.37;10.68;;;;;;;25.74;100.00;98594.34;4476015;32;20157;-65
2023/06/23 05:36:04;;;;;;;16.95;11.20;;;;;;;25.67;100.00;98589.94;4474701;32;20096;-65
2023/06/23 05:38:32;;;;;;;17.02;10.57;;;;;;;25.56;100.00;98593.50;4478080;32;20114;-66
2023/06/23 05:40:59;;;;;;;16.23;11.30;;;;;;;25.67;100.00;98592.63;4476823;32;20130;-65
2023/06/23 05:43:26;;;;;;;17.98;11.52;;;;;;;25.79;100.00;98597.94;4480555;32;20156;-65
2023/06/23 05:45:54;;;;;;;14.18;10.48;;;;;;;25.80;100.00;98604.94;4483462;32;20171;-65
2023/06/23 05:48:35;;;;;;;17.10;10.98;;;;;;;25.97;100.00;98599.63;4480573;32;20151;-65
2023/06/23 05:51:06;;;;;;;18.23;11.65;;;;;;;25.95;100.00;98599.06;4474425;32;20109;-65
2023/06/23 05:53:34;;;;;;;14.75;11.30;;;;;;;26.00;100.00;98593.78;4476313;32;20150;-65
2023/06/23 05:56:35;;;;;;;18.58;11.40;;;;;;;26.05;100.00;98594.94;4473504;32;20188;-65
2023/06/23 05:59:07;;;;;;;15.40;10.05;;;;;;;26.09;100.00;98594.22;4477046;32;20159;-65
2023/06/23 06:01:40;;;;;;;22.05;11.82;;;;;;;26.30;100.00;98581.94;4481151;32;20108;-65
2023/06/23 06:04:09;;;;;;;;;;;;;;;26.21;100.00;98576.16;4482776;32;20096;-65
2023/06/23 06:06:37;;;;;;;14.40;10.90;;;;;;;26.38;100.00;98578.81;4483020;32;19979;-65
2023/06/23 06:09:08;;;;;;;16.05;11.30;;;;;;;26.64;100.00;98586.47;4480470;32;20088;-65
2023/06/23 06:11:37;;;;;;;14.57;12.82;;;;;;;26.98;100.00;98581.03;4465371;32;20100;-65
2023/06/23 06:14:07;;;;;;;18.75;11.02;;;;;;;26.86;100.00;98579.28;4484408;31;20187;-65
2023/06/23 06:16:36;;;;;;;18.33;11.63;;;;;;;26.84;100.00;98567.16;4469236;32;20097;-65
2023/06/23 06:19:04;;;;;;;19.15;11.82;;;;;;;26.99;100.00;98561.97;4473621;32;20618;-64
2023/06/23 06:21:32;;;;;;;15.25;10.80;;;;;;;27.01;100.00;98565.25;4470661;32;20116;-65
2023/06/23 06:24:01;;;;;;;24.12;11.23;;;;;;;27.12;100.00;98565.34;4471415;32;20125;-65
2023/06/23 06:26:28;;;;;;;21.60;12.70;;;;;;;27.11;100.00;98556.47;4469829;32;20172;-65
2023/06/23 06:28:58;;;;;;;23.08;12.48;;;;;;;26.82;100.00;98561.22;4474487;32;20088;-65
2023/06/23 06:31:28;;;;;;;22.37;12.50;;;;;;;27.01;100.00;98549.09;4472760;31;20100;-65
2023/06/23 06:33:58;;;;;;;18.48;13.48;;;;;;;27.03;100.00;98552.34;4470371;32;20108;-65
2023/06/23 06:36:25;;;;;;;23.67;12.73;;;;;;;27.27;100.00;98560.16;4471473;32;20153;-65
2023/06/23 06:38:53;;;;;;;16.85;12.13;;;;;;;27.43;100.00;98555.78;4474249;31;20157;-65
2023/06/23 06:41:20;;;;;;;18.08;11.98;;;;;;;27.60;100.00;98548.44;4469844;32;20100;-65
2023/06/23 06:43:49;;;;;;;13.90;11.60;;;;;;;27.70;100.00;98538.84;4472300;32;20104;-65
2023/06/23 06:46:18;;;;;;;19.37;13.23;;;;;;;27.61;100.00;98531.22;4469718;32;20464;-65
2023/06/23 06:48:47;;;;;;;15.82;11.75;;;;;;;27.41;100.00;98536.41;4468869;32;20080;-65
2023/06/23 06:51:15;;;;;;;18.40;12.45;;;;;;;27.60;100.00;98544.91;4473947;32;20101;-65
2023/06/23 06:53:43;;;;;;;17.27;12.80;;;;;;;27.53;100.00;98555.91;4473347;32;20088;-65
2023/06/23 06:56:11;;;;;;;15.30;12.27;;;;;;;27.87;100.00;98562.94;4472579;32;20145;-65
2023/06/23 06:58:39;;;;;;;21.12;12.07;;;;;;;28.26;100.00;98560.06;4470097;32;20120;-65
2023/06/23 07:01:06;;;;;;;17.73;13.52;;;;;;;28.37;100.00;98553.66;4474420;32;20104;-65
2023/06/23 07:03:34;;;;;;;21.23;14.60;;;;;;;28.54;100.00;98553.53;4470943;32;20108;-65
2023/06/23 07:06:02;;;;;;;27.67;12.07;;;;;;;28.35;100.00;98566.59;4470581;32;20092;-65
2023/06/23 07:08:29;;;;;;;23.20;12.25;;;;;;;28.60;100.00;98557.91;4471900;32;20387;-65
2023/06/23 07:10:58;;;;;;;25.10;12.73;;;;;;;28.92;100.00;98559.69;4473837;31;20119;-65
2023/06/23 07:13:25;;;;;;;21.30;13.77;;;;;;;28.97;100.00;98567.00;4474048;32;20119;-66
2023/06/23 07:15:52;;;;;;;23.58;12.60;;;;;;;29.22;100.00;98569.00;4476103;32;20127;-66
2023/06/23 07:18:20;;;;;;;18.10;12.82;;;;;;;29.29;99.72;98563.38;4470876;32;20502;-66
2023/06/23 07:20:47;;;;;;;22.58;13.18;;;;;;;29.29;100.00;98561.47;4472791;32;20127;-65
2023/06/23 07:23:14;;;;;;;20.70;13.20;;;;;;;28.92;100.00;98557.00;4471063;32;20588;-65
2023/06/23 07:25:41;;;;;;;21.87;13.38;;;;;;;29.24;100.00;98553.37;4472951;32;20124;-65
2023/06/23 07:28:08;;;;;;;23.83;14.10;;;;;;;29.49;100.00;98552.63;4472113;32;20421;-65
2023/06/23 07:30:39;;;;;;;20.33;13.52;;;;;;;29.55;98.40;98551.56;4472648;32;20447;-65
2023/06/23 07:33:07;;;;;;;20.20;12.63;;;;;;;29.50;100.00;98553.44;4468586;32;20134;-65
2023/06/23 07:35:35;;;;;;;19.87;14.10;;;;;;;29.37;97.47;98557.44;4470300;32;20425;-65
2023/06/23 07:38:02;;;;;;;17.98;13.10;;;;;;;29.65;99.31;98555.38;4471727;32;20118;-65
2023/06/23 07:40:30;;;;;;;23.52;13.35;;;;;;;29.75;98.90;98552.66;4477523;31;20170;-65
2023/06/23 07:42:57;;;;;;;21.85;13.35;;;;;;;29.86;97.67;98550.84;4470178;32;20096;-65
2023/06/23 07:45:24;;;;;;;20.00;13.05;;;;;;;29.99;97.70;98550.28;4470535;32;20109;-65
2023/06/23 07:47:52;;;;;;;21.75;13.02;;;;;;;30.10;91.27;98551.13;4468453;32;20119;-65
2023/06/23 07:50:19;;;;;;;22.37;13.80;;;;;;;30.10;92.31;98553.81;4470324;32;20538;-65
2023/06/23 07:52:55;;;;;;;24.30;13.60;;;;;;;30.07;91.64;98557.06;4472834;32;20123;-65
2023/06/23 07:55:22;;;;;;;19.73;14.00;;;;;;;30.29;92.68;98562.16;4474662;31;20093;-65
2023/06/23 07:57:50;;;;;;;16.08;12.85;;;;;;;30.14;93.19;98554.88;4470910;31;20123;-65
2023/06/23 08:00:17;;;;;;;20.67;13.68;;;;;;;30.33;95.77;98559.75;4472525;32;20089;-65
2023/06/23 08:02:45;;;;;;;24.75;14.13;;;;;;;30.44;91.65;98562.16;4473736;32;20104;-65
2023/06/23 08:05:12;;;;;;;19.35;14.15;;;;;;;30.41;91.89;98561.91;4470086;32;20097;-65
2023/06/23 08:07:40;;;;;;;16.08;13.68;;;;;;;30.46;90.01;98553.78;4471753;32;20109;-65
2023/06/23 08:10:07;;;;;;;19.92;13.80;;;;;;;30.68;86.58;98552.69;4470508;32;20117;-65
2023/06/23 08:12:35;;;;;;;20.95;14.43;;;;;;;30.78;91.75;98548.03;4469797;31;20079;-66
2023/06/23 08:15:05;;;;;;;23.02;15.00;;;;;;;30.46;86.27;98552.97;4472045;32;20088;-65
2023/06/23 08:17:32;;;;;;;26.25;13.65;;;;;;;30.65;87.55;98550.53;4469880;32;20386;-65
2023/06/23 08:19:59;;;;;;;28.80;16.33;;;;;;;30.79;91.18;98556.97;4470329;32;20093;-65
2023/06/23 08:22:26;;;;;;;19.58;15.10;;;;;;;30.88;90.36;98554.50;4472250;32;20161;-65
2023/06/23 08:24:56;;;;;;;20.75;13.98;;;;;;;30.79;86.65;98546.94;4467014;32;20135;-65
2023/06/23 08:27:23;;;;;;;17.87;13.73;;;;;;;31.01;85.26;98542.28;4470301;32;20116;-65
2023/06/23 08:29:50;;;;;;;19.70;14.45;;;;;;;31.08;83.37;98550.94;4473461;32;20549;-65
2023/06/23 08:32:18;;;;;;;20.02;13.32;;;;;;;31.04;82.82;98547.97;4473032;32;20092;-65
2023/06/23 08:34:45;;;;;;;17.95;13.40;;;;;;;30.62;83.76;98544.56;4475803;31;20107;-65
2023/06/23 08:37:12;;;;;;;18.73;13.15;;;;;;;30.49;85.02;98557.84;4472888;32;20104;-65
2023/06/23 08:39:44;;;;;;;22.77;13.75;;;;;;;30.73;84.47;98552.66;4470694;31;20120;-65
2023/06/23 08:42:12;;;;;;;20.20;13.80;;;;;;;30.89;85.89;98556.12;4474488;32;20115;-65
2023/06/23 08:44:42;;;;;;;18.77;14.07;;;;;;;30.64;83.98;98549.69;4473767;32;20104;-65
2023/06/23 08:47:12;;;;;;;21.10;14.10;;;;;;;30.60;85.49;98554.84;4471029;32;20101;-65
2023/06/23 08:49:41;;;;;;;17.27;13.07;;;;;;;30.66;83.71;98558.34;4472026;32;20123;-65
2023/06/23 08:52:10;;;;;;;21.92;14.48;;;;;;;30.74;84.19;98551.56;4466047;32;20136;-65
2023/06/23 08:54:38;;;;;;;29.77;14.10;;;;;;;31.03;85.87;98549.06;4470590;32;20390;-65
2023/06/23 08:57:06;;;;;;;22.75;14.45;;;;;;;30.69;83.67;98549.69;4469836;32;20136;-65
2023/06/23 08:59:35;;;;;;;16.48;14.35;;;;;;;30.96;88.58;98557.44;4469546;32;20470;-65
2023/06/23 09:02:03;;;;;;;16.75;13.98;;;;;;;31.33;85.83;98558.13;4470645;32;20224;-65
2023/06/23 09:04:32;;;;;;;19.20;14.85;;;;;;;31.49;81.36;98562.38;4465625;32;20493;-65
2023/06/23 09:06:59;;;;;;;20.50;14.48;;;;;;;31.54;85.04;98561.53;4466377;32;20141;-66
2023/06/23 09:09:26;;;;;;;22.02;14.35;;;;;;;31.42;81.65;98564.56;4472343;32;20108;-65
2023/06/23 09:11:54;;;;;;;24.35;14.52;;;;;;;31.27;82.78;98568.16;4469319;32;20139;-65
2023/06/23 09:14:21;;;;;;;17.83;14.30;;;;;;;31.33;83.37;98571.66;4474101;32;20124;-65
2023/06/23 09:16:53;;;;;;;19.15;15.02;;;;;;;31.41;84.97;98562.13;4472106;32;20467;-66
2023/06/23 09:19:22;;;;;;;18.92;14.38;;;;;;;31.13;84.08;98580.69;4471599;32;20119;-65
2023/06/23 09:21:49;;;;;;;17.87;13.43;;;;;;;31.08;84.62;98580.69;4472195;32;20545;-65
2023/06/23 09:24:17;;;;;;;16.83;13.55;;;;;;;31.26;83.41;98571.16;4469310;32;20130;-66
2023/06/23 09:26:45;;;;;;;20.55;14.43;;;;;;;31.50;82.68;98566.66;4469071;32;20119;-65
2023/06/23 09:29:17;;;;;;;22.20;13.52;;;;;;;31.48;83.57;98562.66;4468166;32;20150;-65
2023/06/23 09:31:47;;;;;;;19.47;14.30;;;;;;;31.38;83.94;98565.41;4471194;32;22038;-65
2023/06/23 09:34:22;;;;;;;21.23;14.73;;;;;;;31.41;82.26;98567.56;4475849;32;20461;-65
2023/06/23 09:36:50;;;;;;;20.40;13.70;;;;;;;31.25;81.72;98569.50;4473346;32;20587;-65
2023/06/23 09:39:17;;;;;;;21.65;14.38;;;;;;;31.49;82.18;98575.91;4467280;32;20640;-65
2023/06/23 09:41:54;;;;;;;18.98;13.82;;;;;;;31.46;80.36;98573.75;4468629;32;20434;-65
2023/06/23 09:44:31;;;;;;;21.52;14.10;;;;;;;31.63;78.40;98578.81;4471522;32;20134;-65
2023/06/23 09:47:00;;;;;;;21.05;13.27;;;;;;;31.61;78.56;98577.47;4473910;32;20132;-65
2023/06/23 09:49:28;;;;;;;19.20;13.23;;;;;;;31.83;75.36;98579.78;4471149;32;20109;-64
2023/06/23 09:51:55;;;;;;;17.15;13.82;;;;;;;32.04;74.54;98594.00;4472183;32;20437;-65
2023/06/23 09:54:40;;;;;;;18.65;13.73;;;;;;;32.00;74.83;98593.72;4470552;32;20120;-65
2023/06/23 09:57:12;;;;;;;19.48;14.45;;;;;;;31.94;74.72;98597.56;4468665;32;20096;-65
2023/06/23 09:59:40;;;;;;;24.50;15.77;;;;;;;32.15;74.79;98586.62;4476328;32;20119;-65
2023/06/23 10:02:09;;;;;;;21.40;14.80;;;;;;;32.48;73.97;98595.00;4483181;31;20108;-65
2023/06/23 10:04:39;;;;;;;22.98;15.40;;;;;;;32.53;73.06;98589.53;4483999;32;20084;-65
2023/06/23 10:07:23;;;;;;;23.75;14.82;;;;;;;32.77;74.61;98588.78;4484427;32;20167;-65
2023/06/23 10:09:55;;;;;;;25.70;15.90;;;;;;;32.46;76.17;98595.28;4480918;31;20505;-65
2023/06/23 10:12:42;;;;;;;19.75;15.52;;;;;;;32.30;78.56;98596.53;4476746;32;20161;-65
2023/06/23 10:15:10;;;;;;;21.67;15.50;;;;;;;32.22;79.43;98592.53;4478780;32;20123;-65
2023/06/23 10:17:38;;;;;;;52.75;16.65;;;;;;;32.21;77.96;98590.09;4483316;31;20427;-65
2023/06/23 10:20:06;;;;;;;20.45;15.20;;;;;;;32.01;77.45;98587.22;4483369;31;20164;-65
2023/06/23 10:22:36;;;;;;;21.20;14.52;;;;;;;32.11;76.80;98586.34;4480643;32;20093;-65
2023/06/23 10:25:07;;;;;;;17.73;14.15;;;;;;;32.19;76.93;98588.47;4483943;31;20084;-65
2023/06/23 10:27:36;;;;;;;21.30;15.00;;;;;;;32.27;77.31;98595.19;4481820;31;20152;-65
2023/06/23 10:30:06;;;;;;;18.60;12.82;;;;;;;32.43;79.33;98595.03;4482967;32;20112;-64
2023/06/23 10:32:34;;;;;;;19.58;14.80;;;;;;;32.39;73.69;98586.69;4476290;32;20092;-65
2023/06/23 10:35:09;;;;;;;21.90;14.20;;;;;;;32.32;75.34;98592.41;4478764;32;20175;-65
2023/06/23 10:37:38;;;;;;;16.02;13.55;;;;;;;32.18;73.34;98586.84;4478134;32;20143;-64
2023/06/23 10:40:19;;;;;;;20.90;14.18;;;;;;;32.32;73.78;98587.00;4477254;32;20108;-64
2023/06/23 10:42:51;;;;;;;26.42;14.38;;;;;;;32.57;73.75;98574.31;4474952;32;20096;-65
2023/06/23 10:45:18;;;;;;;23.33;14.55;;;;;;;32.33;75.08;98561.50;4469952;32;20512;-65
2023/06/23 10:47:45;;;;;;;19.65;14.38;;;;;;;32.40;74.45;98565.78;4483543;32;20183;-66
2023/06/23 10:50:13;;;;;;;18.75;14.15;;;;;;;32.16;73.31;98570.06;4473508;31;20100;-65
2023/06/23 10:52:42;;;;;;;19.85;13.07;;;;;;;32.48;72.61;98573.31;4477287;32;20444;-66
2023/06/23 10:55:35;;;;;;;20.15;13.82;;;;;;;32.82;68.01;98575.16;4470212;32;20129;-62
2023/06/23 10:58:22;;;;;;;21.52;14.32;;;;;;;33.19;70.29;98570.88;4471105;32;20092;-65
2023/06/23 11:00:55;;;;;;;18.10;13.82;;;;;;;32.71;71.32;98569.81;4473241;32;20093;-65
2023/06/23 11:03:32;;;;;;;17.65;14.48;;;;;;;32.78;71.67;98571.38;4469408;32;20149;-65
2023/06/23 11:06:03;;;;;;;22.80;14.85;;;;;;;32.66;68.36;98575.31;4467390;32;20132;-66
2023/06/23 11:08:33;;;;;;;;;;;;;;;32.50;69.69;98562.97;4475594;32;20138;-66
2023/06/23 11:11:01;;;;;;;21.30;13.77;;;;;;;32.82;69.87;98567.00;4473450;31;19984;-65
2023/06/23 11:13:37;;;;;;;18.73;13.32;;;;;;;32.89;67.01;98556.62;4472273;32;20100;-65
2023/06/23 11:16:05;;;;;;;17.15;12.27;;;;;;;32.89;68.97;98562.84;4475931;32;20507;-65
2023/06/23 11:18:32;;;;;;;20.17;12.68;;;;;;;32.70;65.48;98562.81;4472379;32;20084;-65
2023/06/23 11:21:28;;;;;;;27.05;13.98;;;;;;;32.79;66.00;98559.44;4467805;32;20123;-65
2023/06/23 11:24:19;;;;;;;19.05;13.95;;;;;;;33.42;65.17;98561.13;4466846;32;20115;-65
2023/06/23 11:27:00;;;;;;;21.58;14.35;;;;;;;34.13;62.57;98545.66;4476541;32;20915;-65